createdAt,value
2022-09-07T00:02:58.275Z,6.82
2022-09-07T00:08:01.476Z,6.76
2022-09-07T00:13:07.139Z,6.62
2022-09-07T00:18:10.054Z,6.51
2022-09-07T00:23:13.789Z,6.40
2022-09-07T00:28:16.700Z,6.31
2022-09-07T00:33:19.651Z,6.22
2022-09-07T00:38:22.706Z,6.11
2022-09-07T00:43:43.033Z,6.10
2022-09-07T00:49:08.274Z,6.03
2022-09-07T00:54:41.181Z,6.07
2022-09-07T00:59:49.996Z,6.04
2022-09-07T01:05:09.281Z,5.99
2022-09-07T01:10:13.307Z,5.88
2022-09-07T01:15:16.430Z,5.79
2022-09-07T01:21:00.318Z,5.86
2022-09-07T01:26:31.796Z,5.93
2022-09-07T01:31:52.294Z,5.85
2022-09-07T01:37:43.413Z,5.85
2022-09-07T01:43:23.176Z,5.85
2022-09-07T01:48:27.280Z,5.85
2022-09-07T01:53:38.648Z,5.76
2022-09-07T01:58:56.788Z,5.72
2022-09-07T02:04:10.421Z,5.66
2022-09-07T02:09:25.138Z,5.74
2022-09-07T02:14:37.167Z,5.81
2022-09-07T02:19:52.242Z,5.70
2022-09-07T02:25:00.080Z,5.58
2022-09-07T02:30:03.330Z,5.51
2022-09-07T02:35:07.462Z,5.50
2022-09-07T02:40:11.643Z,5.46
2022-09-07T02:45:17.432Z,5.44
2022-09-07T02:50:20.252Z,5.34
2022-09-07T02:55:35.095Z,5.24
2022-09-07T03:01:02.394Z,5.19
2022-09-07T03:06:17.363Z,5.19
2022-09-07T03:11:21.354Z,5.27
2022-09-07T03:16:24.330Z,5.34
2022-09-07T03:21:27.273Z,5.44
2022-09-07T03:26:30.354Z,5.49
2022-09-07T03:31:35.184Z,5.47
2022-09-07T03:36:38.817Z,5.51
2022-09-07T03:41:41.865Z,5.54
2022-09-07T03:46:44.884Z,5.55
2022-09-07T03:51:47.870Z,5.58
2022-09-07T03:56:50.872Z,5.59
2022-09-07T04:01:58.889Z,5.58
2022-09-07T04:07:01.880Z,5.61
2022-09-07T04:12:05.094Z,5.63
2022-09-07T04:17:08.067Z,5.71
2022-09-07T04:22:11.069Z,6.03
2022-09-07T04:27:14.018Z,6.35
2022-09-07T04:32:16.962Z,6.76
2022-09-07T04:37:20.010Z,7.16
2022-09-07T04:42:23.010Z,7.59
2022-09-07T04:47:26.101Z,7.81
2022-09-07T04:52:29.091Z,8.21
2022-09-07T04:57:32.044Z,8.58
2022-09-07T05:02:35.429Z,8.93
2022-09-07T05:07:38.513Z,9.38
2022-09-07T05:12:41.412Z,9.84
2022-09-07T05:17:44.361Z,10.30
2022-09-07T05:22:48.473Z,10.65
2022-09-07T05:27:51.660Z,10.91
2022-09-07T05:32:54.598Z,11.08
2022-09-07T05:37:57.651Z,11.26
2022-09-07T05:43:00.797Z,11.49
2022-09-07T05:48:03.916Z,12.07
2022-09-07T05:53:07.055Z,12.62
2022-09-07T05:58:10.196Z,12.87
2022-09-07T06:03:13.467Z,13.05
2022-09-07T06:08:16.627Z,13.17
2022-09-07T06:13:19.687Z,13.16
2022-09-07T06:18:22.792Z,13.09
2022-09-07T06:23:25.902Z,13.16
2022-09-07T06:28:39.504Z,13.30
2022-09-07T06:33:45.083Z,13.72
2022-09-07T06:38:50.168Z,14.13
2022-09-07T06:43:54.843Z,14.53
2022-09-07T06:48:57.879Z,14.87
2022-09-07T06:59:25.090Z,15.94
2022-09-07T07:04:28.177Z,16.16
2022-09-07T07:09:31.113Z,16.24
2022-09-07T07:14:36.436Z,16.51
2022-09-07T07:19:41.642Z,16.81
2022-09-07T07:24:44.530Z,17.05
2022-09-07T07:29:47.994Z,17.10
2022-09-07T07:34:50.899Z,17.27
2022-09-07T07:50:39.856Z,18.39
2022-09-07T07:55:43.312Z,18.84
2022-09-07T08:00:54.892Z,19.22
2022-09-07T08:06:08.066Z,19.35
2022-09-07T08:11:17.047Z,19.15
2022-09-07T08:16:20.046Z,19.17
2022-09-07T08:21:23.042Z,19.32
2022-09-07T08:26:27.326Z,19.42
2022-09-07T08:31:30.282Z,19.66
2022-09-07T08:36:33.746Z,19.32
2022-09-07T08:42:11.288Z,19.06
2022-09-07T08:47:47.136Z,19.27
2022-09-07T08:52:56.546Z,19.45
2022-09-07T08:58:32.676Z,19.33
2022-09-07T09:09:31.075Z,19.42
2022-09-07T09:14:55.780Z,19.85
2022-09-07T09:20:31.155Z,20.15
2022-09-07T09:25:38.407Z,20.48
2022-09-07T09:30:42.272Z,20.74
2022-09-07T09:35:51.633Z,20.82
2022-09-07T09:40:56.244Z,20.94
2022-09-07T09:46:17.234Z,20.46
2022-09-07T09:56:47.880Z,19.75
2022-09-07T10:07:21.860Z,19.49
2022-09-07T10:12:32.431Z,19.34
2022-09-07T10:17:42.786Z,19.32
2022-09-07T10:22:58.700Z,19.58
2022-09-07T10:28:12.758Z,19.55
2022-09-07T10:39:29.862Z,20.35
2022-09-07T10:44:38.886Z,20.42
2022-09-07T10:55:34.942Z,20.65
2022-09-07T11:00:59.505Z,20.86
2022-09-07T11:06:22.558Z,20.97
2022-09-07T11:17:08.012Z,21.11
2022-09-07T11:22:32.212Z,21.33
2022-09-07T11:27:49.938Z,21.57
2022-09-07T11:33:06.968Z,21.98
2022-09-07T11:38:35.468Z,22.28
2022-09-07T11:43:45.810Z,22.42
2022-09-07T11:48:56.466Z,22.48
2022-09-07T11:54:41.622Z,21.88
2022-09-07T12:00:07.336Z,21.74
2022-09-07T12:05:49.586Z,21.78
2022-09-07T12:11:04.618Z,21.76
2022-09-07T12:16:58.125Z,21.83
2022-09-07T12:22:01.343Z,21.93
2022-09-07T12:27:08.542Z,22.19
2022-09-07T12:37:40.191Z,22.36
2022-09-07T12:42:43.237Z,22.47
2022-09-07T12:47:59.114Z,22.63
2022-09-07T12:53:45.471Z,22.55
2022-09-07T12:59:19.767Z,22.76
2022-09-07T13:04:52.796Z,23.02
2022-09-07T13:10:15.854Z,22.55
2022-09-07T13:16:06.100Z,21.73
2022-09-07T13:21:08.980Z,22.13
2022-09-07T13:26:52.335Z,22.33
2022-09-07T13:32:20.007Z,22.40
2022-09-07T13:37:26.044Z,21.93
2022-09-07T13:42:36.501Z,21.59
2022-09-07T13:47:54.694Z,21.55
2022-09-07T13:53:23.353Z,21.32
2022-09-07T13:58:35.385Z,21.03
2022-09-07T14:04:07.625Z,20.87
2022-09-07T14:09:18.058Z,21.10
2022-09-07T14:14:27.387Z,20.90
2022-09-07T14:19:49.628Z,20.85
2022-09-07T14:25:05.868Z,21.08
2022-09-07T14:30:33.442Z,21.14
2022-09-07T14:35:41.437Z,20.84
2022-09-07T14:40:45.588Z,20.78
2022-09-07T14:45:49.711Z,20.78
2022-09-07T14:51:05.828Z,20.96
2022-09-07T14:56:39.440Z,20.81
2022-09-07T15:01:42.426Z,20.26
2022-09-07T15:07:02.622Z,19.72
2022-09-07T15:12:36.380Z,19.33
2022-09-07T15:17:43.278Z,19.01
2022-09-07T15:22:46.699Z,18.83
2022-09-07T15:27:49.938Z,18.77
2022-09-07T15:32:57.371Z,18.81
2022-09-07T15:38:01.868Z,18.84
2022-09-07T15:43:19.558Z,18.97
2022-09-07T15:48:27.348Z,19.11
2022-09-07T15:58:54.968Z,19.01
2022-09-07T16:03:59.621Z,18.81
2022-09-07T16:09:06.240Z,18.54
2022-09-07T16:14:12.575Z,18.25
2022-09-07T16:19:20.121Z,18.00
2022-09-07T16:24:23.334Z,17.81
2022-09-07T16:29:26.405Z,17.58
2022-09-07T16:34:30.232Z,17.31
2022-09-07T16:39:34.043Z,17.05
2022-09-07T16:44:37.206Z,16.81
2022-09-07T16:49:40.565Z,16.57
2022-09-07T16:54:43.462Z,16.31
2022-09-07T16:59:46.777Z,16.03
2022-09-07T17:04:50.844Z,15.78
2022-09-07T17:09:54.407Z,15.55
2022-09-07T17:14:57.304Z,15.30
2022-09-07T17:20:00.344Z,15.01
2022-09-07T17:25:03.354Z,14.67
2022-09-07T17:30:07.001Z,14.35
2022-09-07T17:35:10.109Z,14.09
2022-09-07T17:40:13.919Z,13.88
2022-09-07T17:45:17.161Z,13.67
2022-09-07T17:50:20.070Z,13.41
2022-09-07T17:55:22.970Z,13.11
2022-09-07T18:00:26.000Z,12.86
2022-09-07T18:05:28.955Z,12.63
2022-09-07T18:16:00.185Z,12.38
2022-09-07T18:21:21.265Z,12.28
2022-09-07T18:26:52.404Z,12.16
2022-09-07T18:32:50.440Z,12.05
2022-09-07T18:38:01.975Z,12.02
2022-09-07T18:43:16.753Z,11.97
2022-09-07T18:48:33.427Z,12.00
2022-09-07T18:53:45.671Z,11.97
2022-09-07T18:59:14.269Z,11.82
2022-09-07T19:04:18.446Z,11.62
2022-09-07T19:09:27.537Z,11.45
2022-09-07T19:15:03.951Z,11.21
2022-09-07T19:20:44.023Z,11.05
2022-09-07T19:25:54.538Z,11.10
2022-09-07T19:31:27.332Z,11.22
2022-09-07T19:37:12.941Z,11.22
2022-09-07T19:42:22.713Z,11.17
2022-09-07T19:47:41.799Z,11.17
2022-09-07T19:52:50.398Z,11.11
2022-09-07T19:58:20.812Z,11.04
2022-09-07T20:03:50.791Z,10.93
2022-09-07T20:09:07.978Z,10.77
2022-09-07T20:14:17.183Z,10.61
2022-09-07T20:19:45.941Z,10.66
2022-09-07T20:25:04.469Z,10.82
2022-09-07T20:30:11.185Z,10.86
2022-09-07T20:35:39.346Z,10.85
2022-09-07T20:41:18.386Z,10.83
2022-09-07T20:46:47.033Z,10.81
2022-09-07T20:52:31.302Z,10.77
2022-09-07T20:58:53.892Z,10.73
2022-09-07T21:04:30.805Z,10.61
2022-09-07T21:10:12.572Z,10.56
2022-09-07T21:16:03.318Z,10.59
2022-09-07T21:21:39.020Z,10.59
2022-09-07T21:26:53.876Z,10.68
2022-09-07T21:32:12.902Z,10.65
2022-09-07T21:37:49.664Z,10.57
2022-09-07T21:43:29.057Z,10.53
2022-09-07T21:48:56.547Z,10.52
2022-09-07T21:55:03.122Z,10.56
2022-09-07T22:00:45.352Z,10.54
2022-09-07T22:07:02.451Z,10.47
2022-09-07T22:12:23.487Z,10.36
2022-09-07T22:17:47.385Z,10.30
2022-09-07T22:23:09.426Z,10.18
2022-09-07T22:29:16.989Z,9.98
2022-09-07T22:35:03.676Z,9.87
2022-09-07T22:40:27.168Z,9.87
2022-09-07T22:46:08.751Z,9.76
2022-09-07T22:51:54.939Z,9.50
2022-09-07T22:57:54.063Z,9.37
2022-09-07T23:03:21.096Z,9.42
2022-09-07T23:08:51.438Z,9.48
2022-09-07T23:15:16.881Z,9.40
2022-09-07T23:20:36.799Z,9.16
2022-09-07T23:26:03.937Z,9.09
2022-09-07T23:31:35.507Z,9.10
2022-09-07T23:37:07.744Z,9.12
2022-09-07T23:42:39.063Z,9.13
2022-09-07T23:48:53.279Z,9.11
2022-09-07T23:54:40.824Z,9.09
2022-09-07T23:59:49.199Z,9.03
